createdAt,value
2022-11-02T00:00:28.206Z,37.20
2022-11-02T00:02:00.590Z,37.30
2022-11-02T00:03:32.193Z,37.19
2022-11-02T00:05:04.779Z,37.23
2022-11-02T00:06:36.402Z,37.37
2022-11-02T00:08:07.940Z,37.09
2022-11-02T00:09:39.616Z,37.15
2022-11-02T00:11:11.349Z,37.18
2022-11-02T00:12:43.030Z,37.32
2022-11-02T00:14:14.660Z,37.58
2022-11-02T00:15:47.296Z,37.58
2022-11-02T00:17:18.910Z,37.82
2022-11-02T00:18:51.250Z,37.72
2022-11-02T00:20:22.933Z,38.12
2022-11-02T00:21:55.789Z,38.03
2022-11-02T00:23:27.309Z,38.07
2022-11-02T00:24:58.991Z,38.38
2022-11-02T00:26:30.625Z,38.67
2022-11-02T00:28:02.711Z,38.54
2022-11-02T00:29:34.701Z,38.78
2022-11-02T00:31:06.279Z,38.85
2022-11-02T00:32:37.923Z,38.94
2022-11-02T00:34:09.616Z,38.88
2022-11-02T00:35:41.353Z,38.94
2022-11-02T00:37:13.109Z,38.92
2022-11-02T00:38:44.759Z,38.92
2022-11-02T00:40:16.357Z,38.95
2022-11-02T00:41:47.908Z,38.90
2022-11-02T00:43:19.572Z,38.55
2022-11-02T00:44:51.183Z,38.90
2022-11-02T00:46:22.758Z,38.87
2022-11-02T00:47:54.242Z,39.08
2022-11-02T00:49:25.867Z,38.90
2022-11-02T00:50:57.731Z,39.18
2022-11-02T00:52:29.198Z,39.14
2022-11-02T00:54:00.719Z,39.13
2022-11-02T00:55:32.240Z,39.21
2022-11-02T00:57:03.879Z,39.18
2022-11-02T00:58:35.510Z,39.14
2022-11-02T01:00:07.552Z,39.24
2022-11-02T01:01:39.379Z,39.15
2022-11-02T01:03:10.992Z,39.11
2022-11-02T01:04:42.627Z,39.07
2022-11-02T01:06:14.678Z,38.97
2022-11-02T01:07:46.224Z,38.90
2022-11-02T01:09:17.868Z,38.97
2022-11-02T01:10:49.615Z,38.89
2022-11-02T01:12:21.193Z,39.10
2022-11-02T01:13:53.106Z,39.20
2022-11-02T01:15:24.735Z,39.52
2022-11-02T01:16:58.110Z,39.52
2022-11-02T01:18:29.652Z,39.59
2022-11-02T01:20:01.575Z,39.71
2022-11-02T01:21:33.222Z,39.53
2022-11-02T01:23:04.941Z,39.75
2022-11-02T01:24:36.540Z,39.70
2022-11-02T01:26:09.035Z,39.75
2022-11-02T01:27:40.733Z,39.72
2022-11-02T01:29:12.459Z,39.63
2022-11-02T01:30:44.184Z,40.06
2022-11-02T01:32:15.813Z,39.94
2022-11-02T01:33:47.448Z,39.85
2022-11-02T01:35:19.199Z,39.99
2022-11-02T01:36:50.888Z,39.96
2022-11-02T01:38:22.459Z,39.90
2022-11-02T01:39:54.093Z,40.24
2022-11-02T01:41:25.851Z,40.02
2022-11-02T01:42:57.795Z,39.94
2022-11-02T01:44:33.431Z,39.92
2022-11-02T01:46:06.096Z,39.98
2022-11-02T01:47:38.235Z,40.01
2022-11-02T01:49:10.926Z,40.13
2022-11-02T01:50:42.695Z,40.30
2022-11-02T01:52:18.640Z,40.07
2022-11-02T01:53:50.288Z,40.54
2022-11-02T01:55:23.072Z,40.53
2022-11-02T01:56:57.095Z,40.43
2022-11-02T01:58:28.654Z,40.63
2022-11-02T02:00:10.096Z,40.69
2022-11-02T02:01:41.839Z,40.12
2022-11-02T02:03:18.283Z,40.60
2022-11-02T02:04:51.618Z,40.34
2022-11-02T02:06:23.445Z,40.55
2022-11-02T02:07:55.100Z,40.64
2022-11-02T02:09:26.687Z,40.94
2022-11-02T02:10:58.369Z,40.81
2022-11-02T02:12:30.092Z,40.38
2022-11-02T02:14:04.436Z,40.80
2022-11-02T02:15:42.349Z,40.49
2022-11-02T02:17:29.374Z,40.39
2022-11-02T02:19:01.298Z,40.51
2022-11-02T02:20:36.298Z,40.75
2022-11-02T02:22:07.832Z,40.44
2022-11-02T02:23:39.499Z,40.82
2022-11-02T02:25:29.904Z,40.61
2022-11-02T02:27:06.528Z,41.37
2022-11-02T02:28:41.319Z,41.56
2022-11-02T02:30:13.052Z,41.08
2022-11-02T02:31:55.857Z,41.41
2022-11-02T02:33:29.909Z,41.18
2022-11-02T02:35:12.699Z,41.32
2022-11-02T02:36:52.167Z,41.49
2022-11-02T02:38:31.486Z,41.80
2022-11-02T02:40:05.249Z,41.64
2022-11-02T02:41:40.334Z,41.77
2022-11-02T02:43:30.754Z,42.15
2022-11-02T02:45:23.760Z,41.98
2022-11-02T02:46:56.437Z,41.64
2022-11-02T02:48:28.861Z,41.59
2022-11-02T02:50:08.218Z,42.16
2022-11-02T02:51:41.051Z,41.81
2022-11-02T02:53:12.756Z,42.09
2022-11-02T02:54:44.305Z,42.43
2022-11-02T02:56:16.366Z,41.80
2022-11-02T02:57:48.772Z,41.86
2022-11-02T02:59:52.804Z,41.59
2022-11-02T03:01:24.420Z,42.28
2022-11-02T03:03:02.030Z,42.02
2022-11-02T03:04:33.653Z,41.93
2022-11-02T03:06:07.985Z,41.95
2022-11-02T03:07:39.596Z,42.30
2022-11-02T03:09:17.080Z,42.26
2022-11-02T03:10:49.200Z,42.62
2022-11-02T03:12:39.611Z,42.20
2022-11-02T03:14:23.889Z,42.75
2022-11-02T03:15:59.901Z,42.75
2022-11-02T03:17:42.605Z,43.24
2022-11-02T03:19:17.113Z,43.24
2022-11-02T03:21:00.630Z,42.67
2022-11-02T03:22:39.963Z,43.67
2022-11-02T03:24:11.550Z,43.31
2022-11-02T03:25:49.718Z,42.93
2022-11-02T03:27:22.932Z,43.33
2022-11-02T03:29:02.570Z,43.04
2022-11-02T03:30:34.767Z,43.40
2022-11-02T03:32:23.422Z,43.27
2022-11-02T03:33:57.235Z,43.56
2022-11-02T03:35:31.603Z,42.77
2022-11-02T03:38:50.617Z,42.87
2022-11-02T03:40:26.141Z,42.97
2022-11-02T03:41:57.638Z,43.22
2022-11-02T03:43:29.821Z,42.97
2022-11-02T03:45:02.844Z,43.00
2022-11-02T03:46:34.478Z,42.95
2022-11-02T03:48:06.891Z,43.43
2022-11-02T03:49:39.992Z,43.09
2022-11-02T03:51:15.317Z,43.06
2022-11-02T03:52:47.373Z,43.22
2022-11-02T03:54:54.822Z,42.82
2022-11-02T03:56:30.337Z,43.39
2022-11-02T03:58:02.316Z,43.66
2022-11-02T03:59:34.122Z,43.72
2022-11-02T04:01:08.494Z,43.63
2022-11-02T04:02:40.181Z,43.80
2022-11-02T04:04:11.849Z,43.31
2022-11-02T04:05:43.442Z,43.70
2022-11-02T04:07:15.565Z,43.84
2022-11-02T04:08:47.595Z,43.52
2022-11-02T04:10:19.576Z,44.06
2022-11-02T04:12:09.431Z,43.74
2022-11-02T04:13:59.873Z,43.81
2022-11-02T04:15:31.395Z,43.95
2022-11-02T04:17:21.477Z,43.79
2022-11-02T04:19:11.939Z,43.58
2022-11-02T04:20:43.584Z,43.67
2022-11-02T04:22:33.503Z,43.61
2022-11-02T04:24:23.841Z,43.73
2022-11-02T04:25:55.914Z,44.02
2022-11-02T04:27:27.555Z,44.45
2022-11-02T04:28:59.088Z,43.99
2022-11-02T04:30:30.586Z,44.75
2022-11-02T04:32:02.054Z,43.88
2022-11-02T04:33:33.729Z,44.58
2022-11-02T04:35:05.631Z,43.91
2022-11-02T04:36:37.620Z,44.10
2022-11-02T04:38:27.968Z,44.82
2022-11-02T04:39:59.575Z,44.45
2022-11-02T04:41:43.096Z,44.26
2022-11-02T04:43:14.774Z,43.98
2022-11-02T04:44:46.391Z,44.99
2022-11-02T04:46:18.118Z,44.69
2022-11-02T04:47:49.840Z,44.39
2022-11-02T04:49:22.721Z,44.53
2022-11-02T04:50:54.314Z,44.91
2022-11-02T04:52:25.875Z,44.73
2022-11-02T04:53:58.032Z,44.56
2022-11-02T04:55:29.728Z,44.59
2022-11-02T04:57:01.475Z,45.52
2022-11-02T04:58:33.083Z,44.55
2022-11-02T05:00:07.424Z,45.12
2022-11-02T05:01:39.196Z,45.47
2022-11-02T05:03:12.520Z,44.65
2022-11-02T05:04:44.313Z,44.91
2022-11-02T05:06:16.318Z,44.49
2022-11-02T05:07:47.851Z,44.53
2022-11-02T05:09:19.372Z,44.44
2022-11-02T05:10:54.001Z,44.48
2022-11-02T05:12:29.126Z,45.06
2022-11-02T05:14:01.494Z,45.15
2022-11-02T05:15:33.438Z,44.79
2022-11-02T05:17:05.474Z,44.89
2022-11-02T05:18:37.134Z,44.86
2022-11-02T05:20:08.982Z,44.64
2022-11-02T05:21:40.542Z,45.03
2022-11-02T05:23:12.037Z,45.10
2022-11-02T05:24:43.677Z,44.97
2022-11-02T05:26:15.455Z,44.69
2022-11-02T05:27:46.947Z,44.36
2022-11-02T05:29:18.642Z,44.58
2022-11-02T05:30:50.398Z,44.15
2022-11-02T05:32:21.898Z,45.13
2022-11-02T05:33:53.563Z,45.06
2022-11-02T05:35:25.147Z,44.84
2022-11-02T05:36:56.802Z,44.58
2022-11-02T05:38:28.628Z,44.96
2022-11-02T05:40:00.254Z,45.18
2022-11-02T05:41:31.793Z,44.65
2022-11-02T05:43:04.221Z,45.50
2022-11-02T05:44:36.154Z,45.59
2022-11-02T05:46:08.148Z,45.80
2022-11-02T05:47:39.725Z,45.95
2022-11-02T05:49:11.413Z,46.01
2022-11-02T05:50:42.946Z,45.79
2022-11-02T05:52:14.580Z,45.22
2022-11-02T05:53:46.290Z,45.29
2022-11-02T05:55:17.904Z,45.29
2022-11-02T05:56:49.530Z,45.58
2022-11-02T05:58:21.078Z,45.20
2022-11-02T05:59:52.856Z,45.23
2022-11-02T06:01:24.624Z,45.74
2022-11-02T06:02:57.421Z,45.68
2022-11-02T06:04:29.060Z,45.83
2022-11-02T06:06:01.376Z,45.70
2022-11-02T06:07:33.003Z,45.50
2022-11-02T06:09:07.354Z,45.11
2022-11-02T06:10:42.722Z,45.11
2022-11-02T06:12:14.947Z,45.28
2022-11-02T06:13:49.426Z,44.96
2022-11-02T06:15:21.004Z,44.97
2022-11-02T06:16:53.073Z,45.41
2022-11-02T06:18:24.627Z,45.34
2022-11-02T06:19:56.438Z,45.70
2022-11-02T06:21:28.045Z,45.56
2022-11-02T06:22:59.716Z,45.48
2022-11-02T06:24:31.293Z,45.53
2022-11-02T06:26:02.966Z,45.67
2022-11-02T06:27:34.571Z,45.58
2022-11-02T06:29:06.395Z,45.46
2022-11-02T06:30:37.911Z,45.23
2022-11-02T06:32:09.527Z,45.09
2022-11-02T06:33:41.238Z,45.15
2022-11-02T06:35:13.685Z,45.16
2022-11-02T06:36:45.300Z,45.44
2022-11-02T06:38:17.129Z,45.15
2022-11-02T06:39:48.897Z,45.39
2022-11-02T06:41:20.462Z,45.33
2022-11-02T06:43:15.433Z,45.04
2022-11-02T06:44:48.528Z,44.74
2022-11-02T06:46:20.096Z,44.79
2022-11-02T06:47:51.784Z,45.12
2022-11-02T06:49:23.675Z,44.76
2022-11-02T06:50:55.401Z,44.96
2022-11-02T06:52:27.720Z,44.63
2022-11-02T06:54:01.247Z,44.96
2022-11-02T06:55:36.139Z,44.69
2022-11-02T06:57:07.812Z,44.90
2022-11-02T06:58:39.425Z,44.93
2022-11-02T07:00:14.593Z,44.67
2022-11-02T07:01:52.659Z,44.96
2022-11-02T07:03:24.384Z,44.62
2022-11-02T07:04:56.925Z,44.47
2022-11-02T07:06:28.475Z,44.28
2022-11-02T07:08:00.205Z,44.40
2022-11-02T07:09:32.367Z,44.64
2022-11-02T07:11:04.903Z,44.44
2022-11-02T07:12:36.530Z,44.38
2022-11-02T07:14:08.250Z,44.50
2022-11-02T07:15:40.219Z,44.16
2022-11-02T07:17:11.874Z,43.84
2022-11-02T07:18:43.524Z,43.80
2022-11-02T07:20:15.156Z,44.09
2022-11-02T07:21:47.851Z,44.31
2022-11-02T07:23:23.732Z,44.40
2022-11-02T07:24:55.445Z,43.80
2022-11-02T07:26:27.273Z,43.86
2022-11-02T07:28:00.206Z,44.15
2022-11-02T07:29:31.881Z,44.05
2022-11-02T07:31:03.402Z,44.11
2022-11-02T07:32:41.579Z,43.73
2022-11-02T07:34:16.976Z,43.93
2022-11-02T07:35:48.961Z,43.30
2022-11-02T07:37:20.501Z,43.34
2022-11-02T07:38:52.269Z,43.38
2022-11-02T07:40:23.928Z,43.24
2022-11-02T07:41:55.792Z,43.44
2022-11-02T07:43:27.490Z,42.93
2022-11-02T07:44:58.981Z,43.33
2022-11-02T07:46:30.583Z,43.14
2022-11-02T07:48:02.640Z,43.09
2022-11-02T07:49:34.297Z,43.08
2022-11-02T07:51:07.853Z,42.98
2022-11-02T07:52:46.703Z,42.88
2022-11-02T07:54:18.393Z,42.92
2022-11-02T07:55:49.941Z,42.95
2022-11-02T07:57:21.628Z,42.83
2022-11-02T07:58:53.176Z,42.99
2022-11-02T08:00:25.450Z,42.67
2022-11-02T08:01:57.265Z,42.71
2022-11-02T08:03:29.210Z,42.48
2022-11-02T08:05:00.975Z,42.36
2022-11-02T08:06:32.525Z,42.32
2022-11-02T08:08:05.032Z,42.25
2022-11-02T08:09:36.937Z,42.03
2022-11-02T08:11:08.740Z,41.92
2022-11-02T08:12:40.340Z,41.86
2022-11-02T08:14:11.923Z,41.89
2022-11-02T08:15:43.405Z,41.77
2022-11-02T08:17:15.069Z,41.72
2022-11-02T08:18:46.973Z,41.51
2022-11-02T08:20:19.965Z,41.38
2022-11-02T08:21:51.573Z,41.42
2022-11-02T08:23:23.223Z,41.07
2022-11-02T08:24:55.029Z,41.14
2022-11-02T08:26:26.588Z,41.20
2022-11-02T08:27:59.275Z,41.21
2022-11-02T08:29:30.984Z,41.25
2022-11-02T08:31:02.487Z,40.96
2022-11-02T08:32:34.137Z,40.98
2022-11-02T08:34:05.709Z,40.84
2022-11-02T08:35:38.507Z,40.96
2022-11-02T08:37:10.184Z,40.57
2022-11-02T08:38:42.710Z,40.63
2022-11-02T08:40:14.295Z,40.50
2022-11-02T08:41:45.904Z,40.34
2022-11-02T08:43:17.531Z,40.13
2022-11-02T08:44:49.261Z,40.12
2022-11-02T08:46:20.830Z,40.17
2022-11-02T08:47:52.469Z,39.95
2022-11-02T08:49:24.142Z,39.87
2022-11-02T08:50:56.459Z,39.98
2022-11-02T08:52:28.096Z,39.64
2022-11-02T08:53:59.787Z,39.45
2022-11-02T08:55:31.540Z,39.33
2022-11-02T08:57:03.357Z,39.16
2022-11-02T08:58:35.379Z,39.12
2022-11-02T09:00:07.365Z,38.94
2022-11-02T09:01:39.436Z,38.87
2022-11-02T09:03:12.565Z,38.70
2022-11-02T09:04:44.148Z,38.55
2022-11-02T09:06:15.790Z,38.47
2022-11-02T09:07:47.505Z,38.35
2022-11-02T09:09:19.019Z,38.43
2022-11-02T09:10:51.630Z,38.36
2022-11-02T09:12:23.278Z,37.97
2022-11-02T09:13:57.270Z,37.84
2022-11-02T09:15:29.071Z,38.02
2022-11-02T09:17:00.685Z,37.95
2022-11-02T09:18:32.220Z,37.81
2022-11-02T09:20:04.173Z,37.61
2022-11-02T09:21:35.890Z,37.17
2022-11-02T09:23:07.521Z,37.42
2022-11-02T09:24:39.087Z,37.06
2022-11-02T09:26:10.682Z,37.03
2022-11-02T09:27:42.415Z,37.08
2022-11-02T09:29:14.105Z,37.30
2022-11-02T09:30:45.898Z,37.15
2022-11-02T09:32:17.480Z,36.96
2022-11-02T09:33:49.057Z,36.83
2022-11-02T09:35:21.044Z,36.31
2022-11-02T09:36:52.640Z,36.07
2022-11-02T09:38:24.275Z,36.27
2022-11-02T09:39:56.090Z,36.05
2022-11-02T09:41:30.963Z,35.99
2022-11-02T09:43:15.260Z,35.82
2022-11-02T09:44:49.443Z,35.72
2022-11-02T09:46:30.201Z,35.34
2022-11-02T09:48:16.376Z,35.14
2022-11-02T09:49:49.655Z,35.09
2022-11-02T09:51:21.967Z,35.02
2022-11-02T09:52:54.902Z,34.95
2022-11-02T09:54:34.065Z,34.77
2022-11-02T09:56:05.831Z,34.53
2022-11-02T09:57:37.402Z,34.28
2022-11-02T09:59:11.646Z,34.08
2022-11-02T10:00:43.486Z,34.09
2022-11-02T10:02:23.851Z,34.16
2022-11-02T10:03:55.505Z,33.85
2022-11-02T10:05:43.065Z,33.65
2022-11-02T10:07:26.520Z,33.91
2022-11-02T10:09:08.829Z,33.86
2022-11-02T10:10:42.941Z,33.62
2022-11-02T10:12:15.487Z,33.76
2022-11-02T10:13:51.284Z,33.32
2022-11-02T10:15:31.634Z,33.07
2022-11-02T10:17:11.732Z,32.97
2022-11-02T10:18:43.574Z,32.80
2022-11-02T10:20:35.525Z,32.71
2022-11-02T10:22:08.760Z,32.49
2022-11-02T10:23:41.168Z,32.38
2022-11-02T10:25:14.123Z,32.19
2022-11-02T10:26:45.724Z,32.10
2022-11-02T10:28:19.207Z,32.09
2022-11-02T10:30:06.155Z,31.99
2022-11-02T10:31:37.738Z,31.67
2022-11-02T10:33:16.935Z,31.64
2022-11-02T10:34:58.518Z,31.33
2022-11-02T10:36:33.769Z,31.30
2022-11-02T10:38:16.867Z,31.20
2022-11-02T10:40:01.316Z,30.93
2022-11-02T10:41:59.197Z,30.65
2022-11-02T10:43:52.151Z,30.86
2022-11-02T10:45:32.649Z,30.64
2022-11-02T10:47:20.486Z,30.42
2022-11-02T10:49:00.923Z,30.29
2022-11-02T10:50:52.837Z,30.05
2022-11-02T10:52:24.381Z,30.14
2022-11-02T10:53:56.184Z,30.00
2022-11-02T10:55:43.358Z,30.08
2022-11-02T10:57:15.284Z,29.90
2022-11-02T10:58:58.279Z,29.68
2022-11-02T11:00:33.575Z,29.19
2022-11-02T11:02:09.252Z,29.38
2022-11-02T11:03:59.376Z,29.04
2022-11-02T11:05:31.546Z,29.18
2022-11-02T11:07:06.872Z,29.10
2022-11-02T11:08:41.840Z,28.66
2022-11-02T11:10:16.425Z,28.93
2022-11-02T11:11:55.237Z,28.66
2022-11-02T11:21:08.709Z,28.10
2022-11-02T11:22:40.466Z,27.85
2022-11-02T11:24:32.253Z,27.80
2022-11-02T11:26:04.715Z,27.40
2022-11-02T11:27:45.464Z,27.34
2022-11-02T11:29:23.622Z,27.53
2022-11-02T11:31:02.356Z,27.72
2022-11-02T11:32:35.395Z,27.10
2022-11-02T11:34:19.508Z,27.10
2022-11-02T11:35:51.201Z,26.97
2022-11-02T11:37:23.332Z,27.10
2022-11-02T11:38:55.965Z,27.10
2022-11-02T11:40:27.912Z,26.97
2022-11-02T11:41:59.470Z,26.82
2022-11-02T11:43:34.068Z,26.60
2022-11-02T11:45:06.887Z,26.34
2022-11-02T11:46:39.199Z,26.40
2022-11-02T11:48:29.105Z,26.22
2022-11-02T11:50:13.418Z,25.90
2022-11-02T11:51:53.176Z,25.74
2022-11-02T11:53:25.361Z,25.68
2022-11-02T11:54:57.730Z,25.62
2022-11-02T11:56:29.828Z,25.57
2022-11-02T11:58:05.001Z,25.40
2022-11-02T11:59:42.858Z,25.47
2022-11-02T12:01:17.919Z,25.35
2022-11-02T12:03:01.884Z,25.23
2022-11-02T12:04:34.803Z,25.36
2022-11-02T12:06:12.073Z,25.47
2022-11-02T12:07:53.467Z,25.21
2022-11-02T12:09:27.441Z,25.27
2022-11-02T12:10:59.102Z,25.14
2022-11-02T12:12:31.175Z,25.03
2022-11-02T12:14:08.840Z,24.93
2022-11-02T12:15:52.387Z,24.83
2022-11-02T12:17:24.596Z,24.72
2022-11-02T12:19:14.728Z,24.50
2022-11-02T12:20:51.974Z,24.36
2022-11-02T12:22:24.468Z,24.30
2022-11-02T12:23:56.104Z,24.21
2022-11-02T12:25:46.989Z,23.83
2022-11-02T12:27:21.460Z,23.90
2022-11-02T12:29:12.160Z,23.78
2022-11-02T12:30:56.193Z,23.84
2022-11-02T12:32:42.537Z,23.50
2022-11-02T12:34:22.154Z,23.75
2022-11-02T12:35:56.789Z,23.72
2022-11-02T12:37:47.211Z,23.39
2022-11-02T12:39:25.003Z,23.50
2022-11-02T12:41:09.604Z,23.14
2022-11-02T12:42:47.708Z,23.17
2022-11-02T12:44:38.734Z,23.26
2022-11-02T12:46:22.486Z,23.18
2022-11-02T12:47:57.775Z,23.14
2022-11-02T12:49:55.952Z,22.91
2022-11-02T12:51:32.855Z,22.63
2022-11-02T12:53:07.615Z,22.75
2022-11-02T12:54:42.501Z,22.64
2022-11-02T12:56:17.024Z,22.18
2022-11-02T12:57:48.611Z,21.98
2022-11-02T12:59:29.404Z,22.37
2022-11-02T13:01:02.236Z,22.46
2022-11-02T13:02:45.395Z,22.26
2022-11-02T13:04:26.012Z,22.01
2022-11-02T13:06:06.545Z,22.37
2022-11-02T13:07:40.057Z,22.21
2022-11-02T13:09:20.762Z,22.27
2022-11-02T13:10:56.927Z,21.84
2022-11-02T13:12:28.639Z,21.90
2022-11-02T13:14:00.348Z,21.70
2022-11-02T13:15:33.672Z,21.90
2022-11-02T13:17:21.089Z,21.75
2022-11-02T13:18:53.989Z,21.77
2022-11-02T13:20:34.119Z,21.73
2022-11-02T13:22:05.983Z,21.57
2022-11-02T13:23:43.801Z,21.86
2022-11-02T13:25:15.488Z,21.64
2022-11-02T13:26:53.210Z,21.49
2022-11-02T13:28:34.141Z,21.71
2022-11-02T13:30:06.594Z,21.65
2022-11-02T13:31:39.876Z,21.93
2022-11-02T13:33:14.172Z,21.75
2022-11-02T13:34:46.173Z,21.62
2022-11-02T13:36:18.049Z,21.59
2022-11-02T13:37:51.376Z,21.22
2022-11-02T13:39:24.642Z,21.42
2022-11-02T13:41:19.257Z,21.23
2022-11-02T13:42:50.888Z,21.25
2022-11-02T13:44:41.159Z,21.19
2022-11-02T13:46:30.796Z,21.06
2022-11-02T13:48:05.735Z,21.16
2022-11-02T13:49:40.864Z,21.04
2022-11-02T13:51:24.138Z,21.15
2022-11-02T13:52:56.879Z,21.10
2022-11-02T13:54:47.284Z,21.14
2022-11-02T13:56:23.083Z,21.07
2022-11-02T13:57:57.668Z,21.21
2022-11-02T13:59:42.216Z,21.27
2022-11-02T14:01:16.332Z,21.23
2022-11-02T14:02:48.480Z,21.15
2022-11-02T14:04:20.420Z,20.99
2022-11-02T14:05:56.319Z,21.04
2022-11-02T14:07:39.051Z,20.90
2022-11-02T14:09:10.637Z,20.99
2022-11-02T14:10:42.684Z,21.18
2022-11-02T14:12:23.245Z,21.05
2022-11-02T14:13:55.227Z,20.79
2022-11-02T14:15:26.904Z,20.94
2022-11-02T14:16:58.911Z,21.09
2022-11-02T14:18:31.537Z,21.07
2022-11-02T14:20:05.410Z,21.10
2022-11-02T14:21:40.345Z,20.92
2022-11-02T14:23:13.150Z,20.82
2022-11-02T14:24:49.609Z,20.64
2022-11-02T14:26:30.971Z,20.91
2022-11-02T14:28:22.809Z,20.66
2022-11-02T14:29:54.843Z,20.92
2022-11-02T14:31:29.502Z,21.31
2022-11-02T14:33:02.975Z,20.78
2022-11-02T14:34:50.532Z,21.24
2022-11-02T14:36:26.797Z,20.88
2022-11-02T14:37:58.410Z,21.31
2022-11-02T14:40:06.167Z,20.90
2022-11-02T14:41:46.567Z,21.29
2022-11-02T14:43:37.073Z,21.16
2022-11-02T14:45:18.191Z,21.08
2022-11-02T14:46:49.883Z,21.32
2022-11-02T14:48:21.454Z,21.12
2022-11-02T14:49:56.270Z,21.08
2022-11-02T14:51:29.094Z,21.21
2022-11-02T14:53:02.273Z,20.96
2022-11-02T14:54:36.289Z,21.10
2022-11-02T14:56:08.080Z,21.12
2022-11-02T14:57:40.984Z,20.94
2022-11-02T14:59:16.173Z,21.19
2022-11-02T15:00:47.836Z,21.22
2022-11-02T15:02:24.687Z,21.22
2022-11-02T15:03:56.421Z,21.08
2022-11-02T15:05:33.154Z,21.06
2022-11-02T15:07:05.102Z,21.15
2022-11-02T15:08:48.354Z,21.33
2022-11-02T15:10:20.001Z,21.27
2022-11-02T15:11:52.395Z,21.19
2022-11-02T15:13:26.647Z,21.36
2022-11-02T15:15:16.955Z,21.41
2022-11-02T15:16:48.728Z,21.44
2022-11-02T15:18:29.468Z,21.42
2022-11-02T15:20:10.287Z,21.63
2022-11-02T15:21:41.829Z,21.59
2022-11-02T15:23:26.465Z,21.59
2022-11-02T15:25:06.267Z,21.61
2022-11-02T15:26:42.286Z,21.83
2022-11-02T15:28:21.182Z,21.58
2022-11-02T15:29:53.208Z,22.03
2022-11-02T15:31:26.328Z,22.10
2022-11-02T15:33:05.359Z,22.10
2022-11-02T15:34:39.723Z,22.26
2022-11-02T15:36:16.318Z,21.92
2022-11-02T15:38:11.246Z,22.07
2022-11-02T15:39:40.432Z,21.99
2022-11-02T15:41:24.229Z,22.09
2022-11-02T15:43:33.097Z,22.17
2022-11-02T15:45:14.341Z,22.43
2022-11-02T15:46:56.850Z,22.66
2022-11-02T15:48:32.451Z,22.67
2022-11-02T15:50:13.339Z,22.75
2022-11-02T15:51:55.248Z,22.94
2022-11-02T15:53:41.965Z,22.83
2022-11-02T15:55:13.789Z,22.53
2022-11-02T15:56:45.383Z,22.69
2022-11-02T15:58:20.771Z,22.95
2022-11-02T16:00:22.036Z,23.17
2022-11-02T16:02:06.389Z,22.94
2022-11-02T16:03:38.450Z,23.10
2022-11-02T16:05:15.909Z,23.17
2022-11-02T16:06:47.920Z,23.25
2022-11-02T16:08:24.299Z,23.45
2022-11-02T16:10:10.444Z,23.50
2022-11-02T16:11:41.990Z,23.69
2022-11-02T16:13:17.495Z,23.67
2022-11-02T16:14:59.364Z,23.52
2022-11-02T16:16:35.685Z,23.80
2022-11-02T16:18:22.111Z,23.89
2022-11-02T16:20:06.109Z,23.70
2022-11-02T16:21:37.787Z,23.85
2022-11-02T16:23:12.383Z,24.00
2022-11-02T16:24:44.593Z,23.84
2022-11-02T16:26:22.954Z,24.07
2022-11-02T16:27:54.656Z,23.95
2022-11-02T16:29:36.551Z,24.02
2022-11-02T16:31:17.395Z,24.21
2022-11-02T16:32:52.926Z,24.29
2022-11-02T16:34:25.933Z,24.05
2022-11-02T16:35:58.137Z,24.49
2022-11-02T16:37:29.769Z,24.06
2022-11-02T16:39:04.380Z,24.17
2022-11-02T16:40:36.161Z,24.12
2022-11-02T16:42:09.021Z,24.24
2022-11-02T16:43:45.598Z,24.35
2022-11-02T16:45:37.089Z,24.49
2022-11-02T16:47:13.545Z,24.45
2022-11-02T16:49:11.744Z,24.33
2022-11-02T16:51:03.947Z,24.59
2022-11-02T16:52:35.897Z,24.46
2022-11-02T16:54:25.595Z,24.48
2022-11-02T16:56:00.760Z,24.53
2022-11-02T16:57:34.602Z,24.38
2022-11-02T16:59:06.297Z,24.60
2022-11-02T17:00:37.954Z,24.61
2022-11-02T17:02:09.807Z,24.56
2022-11-02T17:03:42.201Z,24.46
2022-11-02T17:05:17.611Z,24.66
2022-11-02T17:06:49.824Z,24.60
2022-11-02T17:08:32.123Z,24.71
2022-11-02T17:10:04.143Z,24.67
2022-11-02T17:11:35.770Z,24.71
2022-11-02T17:13:07.777Z,24.82
2022-11-02T17:14:45.742Z,24.65
2022-11-02T17:16:18.472Z,24.72
2022-11-02T17:17:50.675Z,24.82
2022-11-02T17:19:40.762Z,24.82
2022-11-02T17:21:12.624Z,24.77
2022-11-02T17:22:51.477Z,24.79
2022-11-02T17:24:30.341Z,24.86
2022-11-02T17:26:20.710Z,25.00
2022-11-02T17:27:52.837Z,24.97
2022-11-02T17:29:24.362Z,25.05
2022-11-02T17:30:56.066Z,25.13
2022-11-02T17:32:27.691Z,25.14
2022-11-02T17:34:00.622Z,25.31
2022-11-02T17:35:32.213Z,25.35
2022-11-02T17:37:04.263Z,25.52
2022-11-02T17:38:36.223Z,25.49
2022-11-02T17:40:09.626Z,25.63
2022-11-02T17:42:00.261Z,25.69
2022-11-02T17:43:31.846Z,25.79
2022-11-02T17:45:21.528Z,25.65
2022-11-02T17:46:54.612Z,25.77
2022-11-02T17:48:28.577Z,25.79
2022-11-02T17:50:00.212Z,25.87
2022-11-02T17:51:32.081Z,25.84
2022-11-02T17:53:03.975Z,25.89
2022-11-02T17:54:36.081Z,25.95
2022-11-02T17:56:09.022Z,26.13
2022-11-02T17:57:40.686Z,26.13
2022-11-02T17:59:12.211Z,26.17
2022-11-02T18:00:43.882Z,25.93
2022-11-02T18:02:16.172Z,26.00
2022-11-02T18:03:47.978Z,26.08
2022-11-02T18:05:23.472Z,26.20
2022-11-02T18:06:55.423Z,26.24
2022-11-02T18:08:27.022Z,26.47
2022-11-02T18:09:59.154Z,26.31
2022-11-02T18:11:30.838Z,26.29
2022-11-02T18:13:02.751Z,26.35
2022-11-02T18:14:36.721Z,26.27
2022-11-02T18:16:08.794Z,26.33
2022-11-02T18:17:40.472Z,26.34
2022-11-02T18:19:12.443Z,26.56
2022-11-02T18:20:43.997Z,26.66
2022-11-02T18:22:15.766Z,26.61
2022-11-02T18:23:47.446Z,26.74
2022-11-02T18:26:56.162Z,26.69
2022-11-02T18:28:27.861Z,26.69
2022-11-02T18:29:59.432Z,26.78
2022-11-02T18:31:31.477Z,26.86
2022-11-02T18:33:03.166Z,27.00
2022-11-02T18:34:34.941Z,26.94
2022-11-02T18:36:07.243Z,26.96
2022-11-02T18:37:39.083Z,27.02
2022-11-02T18:39:10.586Z,26.81
2022-11-02T18:40:42.245Z,27.14
2022-11-02T18:42:13.873Z,27.05
2022-11-02T18:43:45.408Z,27.29
2022-11-02T18:45:17.064Z,27.29
2022-11-02T18:46:48.775Z,27.29
2022-11-02T18:48:20.454Z,27.42
2022-11-02T18:49:52.090Z,27.45
2022-11-02T18:51:24.319Z,27.38
2022-11-02T18:52:56.102Z,27.41
2022-11-02T18:54:27.769Z,27.73
2022-11-02T18:56:02.827Z,27.75
2022-11-02T18:57:34.467Z,27.77
2022-11-02T18:59:06.257Z,27.84
2022-11-02T19:00:37.864Z,27.78
2022-11-02T19:02:10.283Z,27.94
2022-11-02T19:03:42.043Z,27.92
2022-11-02T19:05:32.201Z,27.96
2022-11-02T19:07:22.272Z,27.97
2022-11-02T19:09:12.899Z,27.87
2022-11-02T19:10:45.366Z,28.12
2022-11-02T19:12:18.812Z,28.18
2022-11-02T19:13:50.413Z,28.18
2022-11-02T19:15:22.165Z,28.32
2022-11-02T19:16:53.858Z,28.34
2022-11-02T19:18:25.562Z,28.39
2022-11-02T19:19:57.166Z,28.38
2022-11-02T19:21:28.748Z,28.36
2022-11-02T19:23:00.333Z,28.31
2022-11-02T19:24:32.195Z,28.34
2022-11-02T19:26:03.683Z,28.30
2022-11-02T19:27:35.357Z,28.42
2022-11-02T19:29:07.096Z,28.43
2022-11-02T19:30:38.816Z,28.41
2022-11-02T19:32:10.455Z,28.51
2022-11-02T19:33:42.021Z,28.40
2022-11-02T19:35:13.612Z,28.57
2022-11-02T19:36:45.236Z,28.57
2022-11-02T19:38:17.157Z,28.65
2022-11-02T19:39:48.731Z,28.70
2022-11-02T19:41:21.831Z,28.55
2022-11-02T19:42:53.558Z,28.89
2022-11-02T19:44:25.102Z,28.81
2022-11-02T19:46:01.116Z,28.87
2022-11-02T19:47:32.651Z,28.86
2022-11-02T19:49:04.311Z,28.92
2022-11-02T19:50:35.946Z,28.92
2022-11-02T19:52:07.573Z,28.95
2022-11-02T19:53:40.058Z,28.94
2022-11-02T19:55:11.628Z,28.81
2022-11-02T19:56:43.307Z,28.94
2022-11-02T19:58:14.915Z,29.08
2022-11-02T19:59:46.765Z,29.12
2022-11-02T20:01:19.302Z,29.26
2022-11-02T20:02:51.125Z,29.21
2022-11-02T20:04:22.806Z,29.14
2022-11-02T20:05:54.479Z,29.23
2022-11-02T20:07:26.079Z,29.22
2022-11-02T20:08:58.214Z,29.32
2022-11-02T20:10:29.813Z,29.41
2022-11-02T20:12:03.008Z,29.50
2022-11-02T20:13:35.140Z,29.59
2022-11-02T20:15:08.090Z,29.60
2022-11-02T20:16:40.580Z,29.65
2022-11-02T20:18:20.278Z,29.60
2022-11-02T20:19:52.242Z,29.63
2022-11-02T20:21:29.836Z,29.81
2022-11-02T20:23:03.876Z,29.71
2022-11-02T20:24:35.507Z,29.69
2022-11-02T20:26:08.065Z,29.76
2022-11-02T20:27:41.344Z,29.83
2022-11-02T20:29:15.469Z,29.87
2022-11-02T20:30:50.064Z,29.83
2022-11-02T20:32:22.506Z,29.98
2022-11-02T20:33:54.244Z,29.94